sensor_id;sensor_type;location;lat;lon;timestamp;temperature;humidity
78366;HTU21D;67641;59.864;30.464;2024-03-07T00:00:07;15.22;71.89
78366;HTU21D;67641;59.864;30.464;2024-03-07T00:02:45;15.22;71.89
78366;HTU21D;67641;59.864;30.464;2024-03-07T00:05:12;15.24;72.01
78366;HTU21D;67641;59.864;30.464;2024-03-07T00:07:39;15.26;71.77
78366;HTU21D;67641;59.864;30.464;2024-03-07T00:10:06;15.28;71.48
78366;HTU21D;67641;59.864;30.464;2024-03-07T00:12:34;15.30;70.97
78366;HTU21D;67641;59.864;30.464;2024-03-07T00:15:05;15.32;70.67
78366;HTU21D;67641;59.864;30.464;2024-03-07T00:17:33;15.31;70.37
78366;HTU21D;67641;59.864;30.464;2024-03-07T00:20:01;15.33;70.26
78366;HTU21D;67641;59.864;30.464;2024-03-07T00:22:31;15.32;70.38
78366;HTU21D;67641;59.864;30.464;2024-03-07T00:24:57;15.31;70.25
78366;HTU21D;67641;59.864;30.464;2024-03-07T00:27:24;15.30;69.77
78366;HTU21D;67641;59.864;30.464;2024-03-07T00:29:52;15.25;69.73
78366;HTU21D;67641;59.864;30.464;2024-03-07T00:32:23;15.23;69.78
78366;HTU21D;67641;59.864;30.464;2024-03-07T00:34:50;15.21;69.90
78366;HTU21D;67641;59.864;30.464;2024-03-07T00:37:17;15.17;70.34
78366;HTU21D;67641;59.864;30.464;2024-03-07T00:39:44;15.16;70.61
78366;HTU21D;67641;59.864;30.464;2024-03-07T00:42:10;15.16;70.79
78366;HTU21D;67641;59.864;30.464;2024-03-07T00:44:37;15.18;70.96
78366;HTU21D;67641;59.864;30.464;2024-03-07T00:47:04;15.22;71.03
78366;HTU21D;67641;59.864;30.464;2024-03-07T00:49:30;15.22;70.86
78366;HTU21D;67641;59.864;30.464;2024-03-07T00:52:00;15.22;70.48
78366;HTU21D;67641;59.864;30.464;2024-03-07T00:54:27;15.23;70.26
78366;HTU21D;67641;59.864;30.464;2024-03-07T00:56:54;15.25;70.31
78366;HTU21D;67641;59.864;30.464;2024-03-07T00:59:21;15.23;70.23
78366;HTU21D;67641;59.864;30.464;2024-03-07T01:01:47;15.22;70.26
78366;HTU21D;67641;59.864;30.464;2024-03-07T01:04:15;15.23;70.29
78366;HTU21D;67641;59.864;30.464;2024-03-07T01:06:42;15.24;70.45
78366;HTU21D;67641;59.864;30.464;2024-03-07T01:09:09;15.24;70.52
78366;HTU21D;67641;59.864;30.464;2024-03-07T01:11:43;15.24;70.66
78366;HTU21D;67641;59.864;30.464;2024-03-07T01:14:14;15.26;70.81
78366;HTU21D;67641;59.864;30.464;2024-03-07T01:16:40;15.25;71.00
78366;HTU21D;67641;59.864;30.464;2024-03-07T01:19:07;15.25;71.29
78366;HTU21D;67641;59.864;30.464;2024-03-07T01:21:34;15.26;71.58
78366;HTU21D;67641;59.864;30.464;2024-03-07T01:24:01;15.27;71.96
78366;HTU21D;67641;59.864;30.464;2024-03-07T01:26:28;15.29;72.34
78366;HTU21D;67641;59.864;30.464;2024-03-07T01:28:56;15.31;72.61
78366;HTU21D;67641;59.864;30.464;2024-03-07T01:31:23;15.34;72.74
78366;HTU21D;67641;59.864;30.464;2024-03-07T01:33:50;15.37;72.76
78366;HTU21D;67641;59.864;30.464;2024-03-07T01:36:16;15.43;72.63
78366;HTU21D;67641;59.864;30.464;2024-03-07T01:38:43;15.44;72.73
78366;HTU21D;67641;59.864;30.464;2024-03-07T01:41:10;15.45;72.59
78366;HTU21D;67641;59.864;30.464;2024-03-07T01:43:37;15.45;72.66
78366;HTU21D;67641;59.864;30.464;2024-03-07T01:46:03;15.45;72.74
78366;HTU21D;67641;59.864;30.464;2024-03-07T01:48:31;15.44;73.06
78366;HTU21D;67641;59.864;30.464;2024-03-07T01:50:59;15.42;73.44
78366;HTU21D;67641;59.864;30.464;2024-03-07T01:53:29;15.38;73.87
78366;HTU21D;67641;59.864;30.464;2024-03-07T01:55:57;15.34;74.34
78366;HTU21D;67641;59.864;30.464;2024-03-07T01:58:25;15.34;74.54
78366;HTU21D;67641;59.864;30.464;2024-03-07T02:00:52;15.33;74.88
78366;HTU21D;67641;59.864;30.464;2024-03-07T02:03:19;15.34;75.24
78366;HTU21D;67641;59.864;30.464;2024-03-07T02:05:46;15.36;75.27
78366;HTU21D;67641;59.864;30.464;2024-03-07T02:08:12;15.38;75.36
78366;HTU21D;67641;59.864;30.464;2024-03-07T02:10:41;15.40;75.34
78366;HTU21D;67641;59.864;30.464;2024-03-07T02:13:08;15.40;75.64
78366;HTU21D;67641;59.864;30.464;2024-03-07T02:15:35;15.41;76.00
78366;HTU21D;67641;59.864;30.464;2024-03-07T02:18:01;15.40;77.72
78366;HTU21D;67641;59.864;30.464;2024-03-07T02:20:28;15.37;77.89
78366;HTU21D;67641;59.864;30.464;2024-03-07T02:22:55;15.40;77.49
78366;HTU21D;67641;59.864;30.464;2024-03-07T02:25:22;15.43;77.69
78366;HTU21D;67641;59.864;30.464;2024-03-07T02:27:48;15.47;77.68
78366;HTU21D;67641;59.864;30.464;2024-03-07T02:30:15;15.52;77.38
78366;HTU21D;67641;59.864;30.464;2024-03-07T02:32:43;15.47;76.60
78366;HTU21D;67641;59.864;30.464;2024-03-07T02:35:13;15.43;76.80
78366;HTU21D;67641;59.864;30.464;2024-03-07T02:37:41;15.38;78.72
78366;HTU21D;67641;59.864;30.464;2024-03-07T02:40:08;15.36;78.69
78366;HTU21D;67641;59.864;30.464;2024-03-07T02:42:35;15.37;80.48
78366;HTU21D;67641;59.864;30.464;2024-03-07T02:45:01;15.40;79.91
78366;HTU21D;67641;59.864;30.464;2024-03-07T02:47:28;15.43;79.79
78366;HTU21D;67641;59.864;30.464;2024-03-07T02:49:55;15.45;79.37
78366;HTU21D;67641;59.864;30.464;2024-03-07T02:52:21;15.45;78.93
78366;HTU21D;67641;59.864;30.464;2024-03-07T02:54:48;15.45;78.70
78366;HTU21D;67641;59.864;30.464;2024-03-07T02:57:15;15.43;79.09
78366;HTU21D;67641;59.864;30.464;2024-03-07T02:59:42;15.42;79.12
78366;HTU21D;67641;59.864;30.464;2024-03-07T03:02:08;15.44;79.35
78366;HTU21D;67641;59.864;30.464;2024-03-07T03:04:35;15.43;79.30
78366;HTU21D;67641;59.864;30.464;2024-03-07T03:07:01;15.42;79.54
78366;HTU21D;67641;59.864;30.464;2024-03-07T03:09:28;15.37;79.53
78366;HTU21D;67641;59.864;30.464;2024-03-07T03:11:54;15.29;79.72
78366;HTU21D;67641;59.864;30.464;2024-03-07T03:14:21;15.22;79.79
78366;HTU21D;67641;59.864;30.464;2024-03-07T03:16:48;15.16;80.01
78366;HTU21D;67641;59.864;30.464;2024-03-07T03:19:14;15.15;79.32
78366;HTU21D;67641;59.864;30.464;2024-03-07T03:21:41;15.13;78.84
78366;HTU21D;67641;59.864;30.464;2024-03-07T03:24:09;15.09;78.46
78366;HTU21D;67641;59.864;30.464;2024-03-07T03:26:35;15.08;78.31
78366;HTU21D;67641;59.864;30.464;2024-03-07T03:29:02;15.07;78.42
78366;HTU21D;67641;59.864;30.464;2024-03-07T03:31:29;15.03;78.34
78366;HTU21D;67641;59.864;30.464;2024-03-07T03:33:56;15.02;78.44
78366;HTU21D;67641;59.864;30.464;2024-03-07T03:36:23;14.97;78.43
78366;HTU21D;67641;59.864;30.464;2024-03-07T03:38:51;14.96;78.43
78366;HTU21D;67641;59.864;30.464;2024-03-07T03:41:18;14.92;78.66
78366;HTU21D;67641;59.864;30.464;2024-03-07T03:43:44;14.87;78.75
78366;HTU21D;67641;59.864;30.464;2024-03-07T03:46:11;14.84;79.01
78366;HTU21D;67641;59.864;30.464;2024-03-07T03:48:41;14.82;79.36
78366;HTU21D;67641;59.864;30.464;2024-03-07T03:51:08;14.80;79.49
78366;HTU21D;67641;59.864;30.464;2024-03-07T03:53:35;14.78;79.58
78366;HTU21D;67641;59.864;30.464;2024-03-07T03:56:03;14.78;79.46
78366;HTU21D;67641;59.864;30.464;2024-03-07T03:58:33;14.78;79.14
78366;HTU21D;67641;59.864;30.464;2024-03-07T04:01:00;14.75;79.00
78366;HTU21D;67641;59.864;30.464;2024-03-07T04:03:26;14.74;78.39
78366;HTU21D;67641;59.864;30.464;2024-03-07T04:05:53;14.74;77.98
78366;HTU21D;67641;59.864;30.464;2024-03-07T04:08:21;14.77;77.78
78366;HTU21D;67641;59.864;30.464;2024-03-07T04:10:48;14.77;77.38
78366;HTU21D;67641;59.864;30.464;2024-03-07T04:13:15;14.78;77.02
78366;HTU21D;67641;59.864;30.464;2024-03-07T04:15:41;14.79;77.04
78366;HTU21D;67641;59.864;30.464;2024-03-07T04:18:08;14.80;76.64
78366;HTU21D;67641;59.864;30.464;2024-03-07T04:20:34;14.82;76.31
78366;HTU21D;67641;59.864;30.464;2024-03-07T04:23:01;14.84;76.03
78366;HTU21D;67641;59.864;30.464;2024-03-07T04:25:29;14.89;75.99
78366;HTU21D;67641;59.864;30.464;2024-03-07T04:27:56;14.92;75.83
78366;HTU21D;67641;59.864;30.464;2024-03-07T04:30:22;14.93;75.42
78366;HTU21D;67641;59.864;30.464;2024-03-07T04:32:49;14.97;75.15
78366;HTU21D;67641;59.864;30.464;2024-03-07T04:35:15;15.01;74.92
78366;HTU21D;67641;59.864;30.464;2024-03-07T04:37:42;15.08;74.35
78366;HTU21D;67641;59.864;30.464;2024-03-07T04:40:10;15.15;74.12
78366;HTU21D;67641;59.864;30.464;2024-03-07T04:42:43;15.37;73.34
78366;HTU21D;67641;59.864;30.464;2024-03-07T04:45:11;15.66;72.37
78366;HTU21D;67641;59.864;30.464;2024-03-07T04:47:43;16.06;70.99
78366;HTU21D;67641;59.864;30.464;2024-03-07T04:50:13;16.44;69.24
78366;HTU21D;67641;59.864;30.464;2024-03-07T04:52:43;16.70;68.16
78366;HTU21D;67641;59.864;30.464;2024-03-07T04:55:10;17.00;67.17
78366;HTU21D;67641;59.864;30.464;2024-03-07T04:57:37;17.30;66.19
78366;HTU21D;67641;59.864;30.464;2024-03-07T05:02:33;18.09;62.95
78366;HTU21D;67641;59.864;30.464;2024-03-07T05:05:00;18.30;62.17
78366;HTU21D;67641;59.864;30.464;2024-03-07T05:07:26;18.54;61.33
78366;HTU21D;67641;59.864;30.464;2024-03-07T05:09:53;18.81;60.75
78366;HTU21D;67641;59.864;30.464;2024-03-07T05:12:19;19.29;59.16
78366;HTU21D;67641;59.864;30.464;2024-03-07T05:14:46;19.70;57.96
78366;HTU21D;67641;59.864;30.464;2024-03-07T05:17:12;19.87;57.12
78366;HTU21D;67641;59.864;30.464;2024-03-07T05:19:39;19.94;57.13
78366;HTU21D;67641;59.864;30.464;2024-03-07T05:22:06;20.30;56.22
78366;HTU21D;67641;59.864;30.464;2024-03-07T05:24:33;20.54;55.56
78366;HTU21D;67641;59.864;30.464;2024-03-07T05:27:00;20.99;54.27
78366;HTU21D;67641;59.864;30.464;2024-03-07T05:29:26;21.22;53.38
78366;HTU21D;67641;59.864;30.464;2024-03-07T05:31:53;21.40;53.10
78366;HTU21D;67641;59.864;30.464;2024-03-07T05:34:19;21.63;52.82
78366;HTU21D;67641;59.864;30.464;2024-03-07T05:36:46;21.88;52.33
78366;HTU21D;67641;59.864;30.464;2024-03-07T05:39:14;22.34;51.08
78366;HTU21D;67641;59.864;30.464;2024-03-07T05:41:42;22.80;49.96
78366;HTU21D;67641;59.864;30.464;2024-03-07T05:44:11;23.07;49.17
78366;HTU21D;67641;59.864;30.464;2024-03-07T05:46:39;23.35;48.79
78366;HTU21D;67641;59.864;30.464;2024-03-07T05:49:16;23.83;47.44
78366;HTU21D;67641;59.864;30.464;2024-03-07T05:51:43;24.21;46.68
78366;HTU21D;67641;59.864;30.464;2024-03-07T05:54:11;24.65;45.10
78366;HTU21D;67641;59.864;30.464;2024-03-07T05:56:40;24.75;45.24
78366;HTU21D;67641;59.864;30.464;2024-03-07T05:59:07;24.42;46.19
78366;HTU21D;67641;59.864;30.464;2024-03-07T06:01:36;24.23;46.42
78366;HTU21D;67641;59.864;30.464;2024-03-07T06:04:05;24.70;45.69
78366;HTU21D;67641;59.864;30.464;2024-03-07T06:06:35;24.70;45.86
78366;HTU21D;67641;59.864;30.464;2024-03-07T06:09:07;24.06;47.81
78366;HTU21D;67641;59.864;30.464;2024-03-07T06:11:34;23.96;48.34
78366;HTU21D;67641;59.864;30.464;2024-03-07T06:14:02;24.60;47.16
78366;HTU21D;67641;59.864;30.464;2024-03-07T06:16:36;24.72;46.84
78366;HTU21D;67641;59.864;30.464;2024-03-07T06:19:05;24.94;46.36
78366;HTU21D;67641;59.864;30.464;2024-03-07T06:21:34;24.79;46.47
78366;HTU21D;67641;59.864;30.464;2024-03-07T06:24:01;24.62;47.20
78366;HTU21D;67641;59.864;30.464;2024-03-07T06:26:33;23.96;49.00
78366;HTU21D;67641;59.864;30.464;2024-03-07T06:29:38;24.49;47.19
78366;HTU21D;67641;59.864;30.464;2024-03-07T06:32:04;24.64;47.19
78366;HTU21D;67641;59.864;30.464;2024-03-07T06:34:32;24.23;48.31
78366;HTU21D;67641;59.864;30.464;2024-03-07T06:36:59;24.29;48.82
78366;HTU21D;67641;59.864;30.464;2024-03-07T06:39:25;24.17;48.66
78366;HTU21D;67641;59.864;30.464;2024-03-07T06:41:52;23.88;49.53
78366;HTU21D;67641;59.864;30.464;2024-03-07T06:44:19;23.31;51.29
78366;HTU21D;67641;59.864;30.464;2024-03-07T06:46:49;22.90;52.72
78366;HTU21D;67641;59.864;30.464;2024-03-07T06:49:16;22.49;53.20
78366;HTU21D;67641;59.864;30.464;2024-03-07T06:51:42;21.89;55.52
78366;HTU21D;67641;59.864;30.464;2024-03-07T06:54:10;21.34;57.29
78366;HTU21D;67641;59.864;30.464;2024-03-07T06:56:37;21.04;58.29
78366;HTU21D;67641;59.864;30.464;2024-03-07T06:59:06;20.92;58.94
78366;HTU21D;67641;59.864;30.464;2024-03-07T07:01:32;20.62;59.93
78366;HTU21D;67641;59.864;30.464;2024-03-07T07:03:59;20.50;60.20
78366;HTU21D;67641;59.864;30.464;2024-03-07T07:06:29;20.51;60.62
78366;HTU21D;67641;59.864;30.464;2024-03-07T07:08:56;20.56;60.26
78366;HTU21D;67641;59.864;30.464;2024-03-07T07:11:24;20.46;59.96
78366;HTU21D;67641;59.864;30.464;2024-03-07T07:13:51;20.68;59.48
78366;HTU21D;67641;59.864;30.464;2024-03-07T07:16:18;20.93;59.06
78366;HTU21D;67641;59.864;30.464;2024-03-07T07:18:45;21.17;58.35
78366;HTU21D;67641;59.864;30.464;2024-03-07T07:21:12;21.44;57.63
78366;HTU21D;67641;59.864;30.464;2024-03-07T07:23:42;21.59;55.56
78366;HTU21D;67641;59.864;30.464;2024-03-07T07:26:08;21.90;54.74
78366;HTU21D;67641;59.864;30.464;2024-03-07T07:28:35;22.06;54.42
78366;HTU21D;67641;59.864;30.464;2024-03-07T07:31:03;22.58;53.04
78366;HTU21D;67641;59.864;30.464;2024-03-07T07:33:30;23.24;51.66
78366;HTU21D;67641;59.864;30.464;2024-03-07T07:35:57;23.90;50.98
78366;HTU21D;67641;59.864;30.464;2024-03-07T07:38:24;24.08;50.32
78366;HTU21D;67641;59.864;30.464;2024-03-07T07:40:50;24.50;49.36
78366;HTU21D;67641;59.864;30.464;2024-03-07T07:43:17;25.06;47.34
78366;HTU21D;67641;59.864;30.464;2024-03-07T07:45:45;25.73;45.46
78366;HTU21D;67641;59.864;30.464;2024-03-07T07:48:12;26.07;44.63
78366;HTU21D;67641;59.864;30.464;2024-03-07T07:50:38;25.39;44.31
78366;HTU21D;67641;59.864;30.464;2024-03-07T07:53:05;24.56;45.08
78366;HTU21D;67641;59.864;30.464;2024-03-07T07:55:35;24.14;46.59
78366;HTU21D;67641;59.864;30.464;2024-03-07T07:58:02;23.80;47.49
78366;HTU21D;67641;59.864;30.464;2024-03-07T08:00:31;23.68;48.12
78366;HTU21D;67641;59.864;30.464;2024-03-07T08:03:00;23.53;48.04
78366;HTU21D;67641;59.864;30.464;2024-03-07T08:05:29;23.11;49.17
78366;HTU21D;67641;59.864;30.464;2024-03-07T08:07:58;23.08;49.73
78366;HTU21D;67641;59.864;30.464;2024-03-07T08:10:26;23.36;49.02
78366;HTU21D;67641;59.864;30.464;2024-03-07T08:12:55;23.70;47.29
78366;HTU21D;67641;59.864;30.464;2024-03-07T08:15:23;23.42;48.88
78366;HTU21D;67641;59.864;30.464;2024-03-07T08:17:49;22.64;52.94
78366;HTU21D;67641;59.864;30.464;2024-03-07T08:20:19;22.07;55.85
78366;HTU21D;67641;59.864;30.464;2024-03-07T08:22:50;21.89;55.87
78366;HTU21D;67641;59.864;30.464;2024-03-07T08:25:27;22.35;55.43
78366;HTU21D;67641;59.864;30.464;2024-03-07T08:27:56;23.18;53.38
78366;HTU21D;67641;59.864;30.464;2024-03-07T08:30:24;23.96;51.91
78366;HTU21D;67641;59.864;30.464;2024-03-07T08:32:54;24.11;52.14
78366;HTU21D;67641;59.864;30.464;2024-03-07T08:35:22;23.88;52.50
78366;HTU21D;67641;59.864;30.464;2024-03-07T08:37:51;24.26;51.66
78366;HTU21D;67641;59.864;30.464;2024-03-07T08:40:23;23.66;52.22
78366;HTU21D;67641;59.864;30.464;2024-03-07T08:42:52;23.44;52.77
78366;HTU21D;67641;59.864;30.464;2024-03-07T08:45:19;23.67;52.94
78366;HTU21D;67641;59.864;30.464;2024-03-07T08:47:47;23.50;53.64
78366;HTU21D;67641;59.864;30.464;2024-03-07T08:50:15;23.43;53.81
78366;HTU21D;67641;59.864;30.464;2024-03-07T08:52:44;22.87;54.10
78366;HTU21D;67641;59.864;30.464;2024-03-07T08:55:20;22.61;55.00
78366;HTU21D;67641;59.864;30.464;2024-03-07T08:57:47;22.60;55.81
78366;HTU21D;67641;59.864;30.464;2024-03-07T09:00:16;22.84;55.00
78366;HTU21D;67641;59.864;30.464;2024-03-07T09:02:54;23.35;53.44
78366;HTU21D;67641;59.864;30.464;2024-03-07T09:05:24;23.69;52.78
78366;HTU21D;67641;59.864;30.464;2024-03-07T09:07:52;24.12;51.66
78366;HTU21D;67641;59.864;30.464;2024-03-07T09:10:19;24.15;50.93
78366;HTU21D;67641;59.864;30.464;2024-03-07T09:12:49;24.06;50.59
78366;HTU21D;67641;59.864;30.464;2024-03-07T09:15:16;24.62;48.70
78366;HTU21D;67641;59.864;30.464;2024-03-07T09:17:43;24.82;48.29
78366;HTU21D;67641;59.864;30.464;2024-03-07T09:20:11;24.29;48.82
78366;HTU21D;67641;59.864;30.464;2024-03-07T09:22:44;23.29;50.50
78366;HTU21D;67641;59.864;30.464;2024-03-07T09:25:11;23.60;51.00
78366;HTU21D;67641;59.864;30.464;2024-03-07T09:27:39;24.12;49.92
78366;HTU21D;67641;59.864;30.464;2024-03-07T09:30:09;24.90;45.72
78366;HTU21D;67641;59.864;30.464;2024-03-07T09:32:41;25.37;45.69
78366;HTU21D;67641;59.864;30.464;2024-03-07T09:35:08;25.09;45.41
78366;HTU21D;67641;59.864;30.464;2024-03-07T09:37:41;25.45;45.05
78366;HTU21D;67641;59.864;30.464;2024-03-07T09:40:09;25.90;44.57
78366;HTU21D;67641;59.864;30.464;2024-03-07T09:42:49;26.18;43.90
78366;HTU21D;67641;59.864;30.464;2024-03-07T09:45:20;25.97;44.31
78366;HTU21D;67641;59.864;30.464;2024-03-07T09:47:47;25.94;43.08
78366;HTU21D;67641;59.864;30.464;2024-03-07T09:50:16;26.20;42.89
78366;HTU21D;67641;59.864;30.464;2024-03-07T09:52:46;26.73;41.54
78366;HTU21D;67641;59.864;30.464;2024-03-07T09:55:16;27.22;39.91
78366;HTU21D;67641;59.864;30.464;2024-03-07T09:57:46;27.61;39.11
78366;HTU21D;67641;59.864;30.464;2024-03-07T10:00:12;27.42;39.07
78366;HTU21D;67641;59.864;30.464;2024-03-07T10:02:58;27.02;38.63
78366;HTU21D;67641;59.864;30.464;2024-03-07T10:05:30;26.73;39.12
78366;HTU21D;67641;59.864;30.464;2024-03-07T10:07:57;26.49;39.58
78366;HTU21D;67641;59.864;30.464;2024-03-07T10:10:24;26.51;40.54
78366;HTU21D;67641;59.864;30.464;2024-03-07T10:12:51;27.08;40.61
78366;HTU21D;67641;59.864;30.464;2024-03-07T10:15:30;27.31;39.72
78366;HTU21D;67641;59.864;30.464;2024-03-07T10:17:58;27.36;39.40
78366;HTU21D;67641;59.864;30.464;2024-03-07T10:20:25;27.51;39.65
78366;HTU21D;67641;59.864;30.464;2024-03-07T10:22:52;27.44;40.34
78366;HTU21D;67641;59.864;30.464;2024-03-07T10:25:20;27.86;39.32
78366;HTU21D;67641;59.864;30.464;2024-03-07T10:27:51;27.26;40.68
78366;HTU21D;67641;59.864;30.464;2024-03-07T10:30:19;26.81;40.99
78366;HTU21D;67641;59.864;30.464;2024-03-07T10:32:54;26.87;41.24
78366;HTU21D;67641;59.864;30.464;2024-03-07T10:35:22;26.92;41.03
78366;HTU21D;67641;59.864;30.464;2024-03-07T10:37:51;26.91;40.84
78366;HTU21D;67641;59.864;30.464;2024-03-07T10:40:20;26.75;41.22
78366;HTU21D;67641;59.864;30.464;2024-03-07T10:42:48;26.19;41.95
78366;HTU21D;67641;59.864;30.464;2024-03-07T10:45:19;26.26;40.94
78366;HTU21D;67641;59.864;30.464;2024-03-07T10:47:55;26.64;39.69
78366;HTU21D;67641;59.864;30.464;2024-03-07T10:58:58;27.36;38.90
78366;HTU21D;67641;59.864;30.464;2024-03-07T11:01:31;26.93;40.62
78366;HTU21D;67641;59.864;30.464;2024-03-07T11:04:03;27.37;39.60
78366;HTU21D;67641;59.864;30.464;2024-03-07T11:06:33;27.28;39.89
78366;HTU21D;67641;59.864;30.464;2024-03-07T11:09:01;27.17;39.24
78366;HTU21D;67641;59.864;30.464;2024-03-07T11:11:39;27.40;39.01
78366;HTU21D;67641;59.864;30.464;2024-03-07T11:14:11;27.28;39.40
78366;HTU21D;67641;59.864;30.464;2024-03-07T11:16:39;27.37;39.24
78366;HTU21D;67641;59.864;30.464;2024-03-07T11:19:24;27.29;39.46
78366;HTU21D;67641;59.864;30.464;2024-03-07T11:21:56;27.09;39.52
78366;HTU21D;67641;59.864;30.464;2024-03-07T11:24:27;26.94;40.07
78366;HTU21D;67641;59.864;30.464;2024-03-07T11:26:55;27.42;39.33
78366;HTU21D;67641;59.864;30.464;2024-03-07T11:29:50;27.80;38.75
78366;HTU21D;67641;59.864;30.464;2024-03-07T11:32:19;27.56;38.57
78366;HTU21D;67641;59.864;30.464;2024-03-07T11:34:49;27.24;39.99
78366;HTU21D;67641;59.864;30.464;2024-03-07T11:37:36;26.95;40.25
78366;HTU21D;67641;59.864;30.464;2024-03-07T11:40:07;27.05;39.44
78366;HTU21D;67641;59.864;30.464;2024-03-07T11:42:34;26.84;40.33
78366;HTU21D;67641;59.864;30.464;2024-03-07T11:45:02;27.01;41.18
78366;HTU21D;67641;59.864;30.464;2024-03-07T11:47:39;27.32;40.16
78366;HTU21D;67641;59.864;30.464;2024-03-07T11:50:06;27.15;39.75
78366;HTU21D;67641;59.864;30.464;2024-03-07T11:52:38;26.75;39.12
78366;HTU21D;67641;59.864;30.464;2024-03-07T11:55:13;26.25;39.01
78366;HTU21D;67641;59.864;30.464;2024-03-07T11:57:41;26.11;39.69
78366;HTU21D;67641;59.864;30.464;2024-03-07T12:00:11;25.93;40.21
78366;HTU21D;67641;59.864;30.464;2024-03-07T12:02:38;26.38;39.96
78366;HTU21D;67641;59.864;30.464;2024-03-07T12:05:06;26.16;41.24
78366;HTU21D;67641;59.864;30.464;2024-03-07T12:07:33;26.06;40.94
78366;HTU21D;67641;59.864;30.464;2024-03-07T12:10:01;25.50;42.21
78366;HTU21D;67641;59.864;30.464;2024-03-07T12:12:30;25.31;43.00
78366;HTU21D;67641;59.864;30.464;2024-03-07T12:14:57;25.03;43.31
78366;HTU21D;67641;59.864;30.464;2024-03-07T12:17:24;24.64;43.99
78366;HTU21D;67641;59.864;30.464;2024-03-07T12:19:51;24.35;44.25
78366;HTU21D;67641;59.864;30.464;2024-03-07T12:22:19;24.23;44.25
78366;HTU21D;67641;59.864;30.464;2024-03-07T12:25:03;24.23;44.14
78366;HTU21D;67641;59.864;30.464;2024-03-07T12:27:29;23.82;46.12
78366;HTU21D;67641;59.864;30.464;2024-03-07T12:29:56;23.61;47.59
78366;HTU21D;67641;59.864;30.464;2024-03-07T12:32:23;23.43;46.48
78366;HTU21D;67641;59.864;30.464;2024-03-07T12:34:51;23.18;47.59
78366;HTU21D;67641;59.864;30.464;2024-03-07T12:37:19;23.12;47.68
78366;HTU21D;67641;59.864;30.464;2024-03-07T12:39:53;22.77;48.82
78366;HTU21D;67641;59.864;30.464;2024-03-07T12:42:27;22.53;49.90
78366;HTU21D;67641;59.864;30.464;2024-03-07T12:44:57;22.41;48.25
78366;HTU21D;67641;59.864;30.464;2024-03-07T12:47:25;22.36;48.64
78366;HTU21D;67641;59.864;30.464;2024-03-07T12:49:54;22.29;49.37
78366;HTU21D;67641;59.864;30.464;2024-03-07T12:52:24;22.37;48.92
78366;HTU21D;67641;59.864;30.464;2024-03-07T12:54:51;22.23;49.04
78366;HTU21D;67641;59.864;30.464;2024-03-07T12:57:19;22.07;49.34
78366;HTU21D;67641;59.864;30.464;2024-03-07T12:59:45;22.02;50.05
78366;HTU21D;67641;59.864;30.464;2024-03-07T13:02:12;22.46;48.81
78366;HTU21D;67641;59.864;30.464;2024-03-07T13:04:39;23.61;45.57
78366;HTU21D;67641;59.864;30.464;2024-03-07T13:07:06;24.17;44.11
78366;HTU21D;67641;59.864;30.464;2024-03-07T13:09:34;24.50;42.70
78366;HTU21D;67641;59.864;30.464;2024-03-07T13:12:01;24.80;40.57
78366;HTU21D;67641;59.864;30.464;2024-03-07T13:14:30;25.09;40.04
78366;HTU21D;67641;59.864;30.464;2024-03-07T13:17:00;25.02;40.48
78366;HTU21D;67641;59.864;30.464;2024-03-07T13:19:28;25.31;40.43
78366;HTU21D;67641;59.864;30.464;2024-03-07T13:21:56;25.42;39.75
78366;HTU21D;67641;59.864;30.464;2024-03-07T13:24:24;25.40;38.98
78366;HTU21D;67641;59.864;30.464;2024-03-07T13:26:51;25.29;38.83
78366;HTU21D;67641;59.864;30.464;2024-03-07T13:29:19;25.14;37.14
78366;HTU21D;67641;59.864;30.464;2024-03-07T13:31:51;25.33;36.11
78366;HTU21D;67641;59.864;30.464;2024-03-07T13:34:18;25.49;34.90
78366;HTU21D;67641;59.864;30.464;2024-03-07T13:36:45;25.97;33.92
78366;HTU21D;67641;59.864;30.464;2024-03-07T13:39:12;26.17;33.99
78366;HTU21D;67641;59.864;30.464;2024-03-07T13:41:41;26.27;33.95
78366;HTU21D;67641;59.864;30.464;2024-03-07T13:44:07;26.33;32.12
78366;HTU21D;67641;59.864;30.464;2024-03-07T13:46:34;26.43;31.90
78366;HTU21D;67641;59.864;30.464;2024-03-07T13:49:02;26.31;31.93
78366;HTU21D;67641;59.864;30.464;2024-03-07T13:51:43;26.21;32.29
78366;HTU21D;67641;59.864;30.464;2024-03-07T13:54:17;26.27;33.12
78366;HTU21D;67641;59.864;30.464;2024-03-07T14:03:11;25.37;38.83
78366;HTU21D;67641;59.864;30.464;2024-03-07T14:17:05;25.44;42.71
78366;HTU21D;67641;59.864;30.464;2024-03-07T14:31:06;24.28;47.58
78366;HTU21D;67641;59.864;30.464;2024-03-07T14:34:04;24.04;47.76
78366;HTU21D;67641;59.864;30.464;2024-03-07T14:36:43;23.99;47.53
78366;HTU21D;67641;59.864;30.464;2024-03-07T14:39:15;24.11;47.28
78366;HTU21D;67641;59.864;30.464;2024-03-07T14:41:52;24.00;47.13
78366;HTU21D;67641;59.864;30.464;2024-03-07T14:44:21;23.69;47.71
78366;HTU21D;67641;59.864;30.464;2024-03-07T14:46:53;23.46;48.19
78366;HTU21D;67641;59.864;30.464;2024-03-07T14:49:21;23.18;48.69
78366;HTU21D;67641;59.864;30.464;2024-03-07T14:51:49;23.16;48.33
78366;HTU21D;67641;59.864;30.464;2024-03-07T14:54:16;23.02;48.41
78366;HTU21D;67641;59.864;30.464;2024-03-07T14:56:43;22.69;48.68
78366;HTU21D;67641;59.864;30.464;2024-03-07T14:59:09;22.09;49.83
78366;HTU21D;67641;59.864;30.464;2024-03-07T15:01:36;21.63;51.32
78366;HTU21D;67641;59.864;30.464;2024-03-07T15:04:04;21.40;51.64
78366;HTU21D;67641;59.864;30.464;2024-03-07T15:06:34;21.29;51.85
78366;HTU21D;67641;59.864;30.464;2024-03-07T15:09:01;21.15;52.07
78366;HTU21D;67641;59.864;30.464;2024-03-07T15:11:34;21.03;52.40
78366;HTU21D;67641;59.864;30.464;2024-03-07T15:14:01;20.93;52.30
78366;HTU21D;67641;59.864;30.464;2024-03-07T15:16:30;20.77;52.18
78366;HTU21D;67641;59.864;30.464;2024-03-07T15:19:04;20.64;51.85
78366;HTU21D;67641;59.864;30.464;2024-03-07T15:21:31;20.50;51.86
78366;HTU21D;67641;59.864;30.464;2024-03-07T15:23:58;20.48;51.21
78366;HTU21D;67641;59.864;30.464;2024-03-07T15:26:26;20.39;50.82
78366;HTU21D;67641;59.864;30.464;2024-03-07T15:28:53;20.30;50.64
78366;HTU21D;67641;59.864;30.464;2024-03-07T15:31:24;20.24;50.49
78366;HTU21D;67641;59.864;30.464;2024-03-07T15:33:51;20.20;50.71
78366;HTU21D;67641;59.864;30.464;2024-03-07T15:36:18;20.16;50.83
78366;HTU21D;67641;59.864;30.464;2024-03-07T15:38:45;20.12;50.66
78366;HTU21D;67641;59.864;30.464;2024-03-07T15:41:12;20.10;50.61
78366;HTU21D;67641;59.864;30.464;2024-03-07T15:43:39;20.09;50.77
78366;HTU21D;67641;59.864;30.464;2024-03-07T15:46:15;19.99;50.61
78366;HTU21D;67641;59.864;30.464;2024-03-07T15:48:44;19.95;50.94
78366;HTU21D;67641;59.864;30.464;2024-03-07T15:51:13;19.91;50.64